sensor_id;sensor_type;location;lat;lon;timestamp;P1;durP1;ratioP1;P2;durP2;ratioP2
19645;SDS011;9971;52.446;13.452;2023-10-09T00:09:32;2.43;;;1.80;;
19645;SDS011;9971;52.446;13.452;2023-10-09T00:52:17;2.37;;;2.07;;
19645;SDS011;9971;52.446;13.452;2023-10-09T00:57:31;2.35;;;2.15;;
19645;SDS011;9971;52.446;13.452;2023-10-09T01:02:45;2.27;;;1.73;;
19645;SDS011;9971;52.446;13.452;2023-10-09T01:07:49;2.77;;;2.27;;
19645;SDS011;9971;52.446;13.452;2023-10-09T01:12:52;2.77;;;2.37;;
19645;SDS011;9971;52.446;13.452;2023-10-09T01:17:59;4.33;;;2.30;;
19645;SDS011;9971;52.446;13.452;2023-10-09T01:23:30;3.73;;;2.63;;
19645;SDS011;9971;52.446;13.452;2023-10-09T01:28:47;3.23;;;2.67;;
19645;SDS011;9971;52.446;13.452;2023-10-09T01:34:08;2.17;;;1.90;;
19645;SDS011;9971;52.446;13.452;2023-10-09T01:39:33;2.27;;;1.90;;
19645;SDS011;9971;52.446;13.452;2023-10-09T02:06:08;1.73;;;1.63;;
19645;SDS011;9971;52.446;13.452;2023-10-09T02:11:37;3.37;;;1.80;;
19645;SDS011;9971;52.446;13.452;2023-10-09T02:32:56;3.50;;;2.30;;
19645;SDS011;9971;52.446;13.452;2023-10-09T03:31:52;2.03;;;1.93;;
19645;SDS011;9971;52.446;13.452;2023-10-09T03:36:55;3.20;;;2.53;;
19645;SDS011;9971;52.446;13.452;2023-10-09T05:13:29;3.77;;;3.02;;
19645;SDS011;9971;52.446;13.452;2023-10-09T05:18:45;4.83;;;3.50;;
19645;SDS011;9971;52.446;13.452;2023-10-09T05:23:55;3.37;;;3.00;;
19645;SDS011;9971;52.446;13.452;2023-10-09T05:29:04;3.37;;;3.00;;
19645;SDS011;9971;52.446;13.452;2023-10-09T05:34:13;2.98;;;2.45;;
19645;SDS011;9971;52.446;13.452;2023-10-09T05:39:15;2.62;;;2.30;;
19645;SDS011;9971;52.446;13.452;2023-10-09T05:44:20;3.17;;;2.43;;
19645;SDS011;9971;52.446;13.452;2023-10-09T05:49:29;2.83;;;2.50;;
19645;SDS011;9971;52.446;13.452;2023-10-09T06:00:09;3.30;;;2.57;;
19645;SDS011;9971;52.446;13.452;2023-10-09T06:05:32;2.67;;;2.47;;
19645;SDS011;9971;52.446;13.452;2023-10-09T06:10:40;3.23;;;2.93;;
19645;SDS011;9971;52.446;13.452;2023-10-09T06:15:42;3.05;;;2.72;;
19645;SDS011;9971;52.446;13.452;2023-10-09T06:20:47;3.40;;;2.57;;
19645;SDS011;9971;52.446;13.452;2023-10-09T06:26:06;3.53;;;3.10;;
19645;SDS011;9971;52.446;13.452;2023-10-09T06:31:08;3.05;;;2.67;;
19645;SDS011;9971;52.446;13.452;2023-10-09T06:36:16;3.10;;;2.80;;
19645;SDS011;9971;52.446;13.452;2023-10-09T06:41:19;3.27;;;2.97;;
19645;SDS011;9971;52.446;13.452;2023-10-09T06:46:40;3.70;;;3.07;;
19645;SDS011;9971;52.446;13.452;2023-10-09T06:51:48;3.70;;;3.13;;
19645;SDS011;9971;52.446;13.452;2023-10-09T06:56:51;3.23;;;2.93;;
19645;SDS011;9971;52.446;13.452;2023-10-09T07:02:09;3.60;;;3.30;;
19645;SDS011;9971;52.446;13.452;2023-10-09T07:07:23;4.92;;;3.08;;
19645;SDS011;9971;52.446;13.452;2023-10-09T07:12:26;3.93;;;3.30;;
19645;SDS011;9971;52.446;13.452;2023-10-09T07:17:30;2.45;;;2.22;;
19645;SDS011;9971;52.446;13.452;2023-10-09T07:22:49;4.40;;;3.00;;
19645;SDS011;9971;52.446;13.452;2023-10-09T07:27:57;3.93;;;2.60;;
19645;SDS011;9971;52.446;13.452;2023-10-09T07:33:03;3.13;;;2.43;;
19645;SDS011;9971;52.446;13.452;2023-10-09T07:38:19;3.43;;;2.77;;
19645;SDS011;9971;52.446;13.452;2023-10-09T07:43:23;2.57;;;2.33;;
19645;SDS011;9971;52.446;13.452;2023-10-09T07:48:27;2.97;;;2.70;;
19645;SDS011;9971;52.446;13.452;2023-10-09T07:53:37;3.10;;;2.80;;
19645;SDS011;9971;52.446;13.452;2023-10-09T07:58:47;3.90;;;2.83;;
19645;SDS011;9971;52.446;13.452;2023-10-09T08:03:49;4.58;;;3.08;;
19645;SDS011;9971;52.446;13.452;2023-10-09T08:08:51;3.15;;;2.83;;
19645;SDS011;9971;52.446;13.452;2023-10-09T08:14:11;3.23;;;2.77;;
19645;SDS011;9971;52.446;13.452;2023-10-09T08:19:18;2.83;;;2.43;;
19645;SDS011;9971;52.446;13.452;2023-10-09T08:24:37;3.80;;;3.33;;
19645;SDS011;9971;52.446;13.452;2023-10-09T08:29:42;3.50;;;2.60;;
19645;SDS011;9971;52.446;13.452;2023-10-09T08:34:46;3.07;;;2.80;;
19645;SDS011;9971;52.446;13.452;2023-10-09T08:39:49;3.20;;;2.77;;
19645;SDS011;9971;52.446;13.452;2023-10-09T08:44:51;3.62;;;2.80;;
19645;SDS011;9971;52.446;13.452;2023-10-09T08:49:56;3.63;;;3.07;;
19645;SDS011;9971;52.446;13.452;2023-10-09T08:54:57;3.40;;;2.93;;
19645;SDS011;9971;52.446;13.452;2023-10-09T09:00:01;3.50;;;3.20;;
19645;SDS011;9971;52.446;13.452;2023-10-09T09:05:21;3.80;;;2.83;;
19645;SDS011;9971;52.446;13.452;2023-10-09T09:10:27;2.70;;;2.50;;
19645;SDS011;9971;52.446;13.452;2023-10-09T09:15:29;3.20;;;2.53;;
19645;SDS011;9971;52.446;13.452;2023-10-09T09:20:31;4.67;;;3.17;;
19645;SDS011;9971;52.446;13.452;2023-10-09T09:30:46;3.43;;;2.97;;
19645;SDS011;9971;52.446;13.452;2023-10-09T09:35:57;3.52;;;3.22;;
19645;SDS011;9971;52.446;13.452;2023-10-09T09:40:58;4.40;;;3.47;;
19645;SDS011;9971;52.446;13.452;2023-10-09T09:46:01;2.95;;;2.72;;
19645;SDS011;9971;52.446;13.452;2023-10-09T09:51:04;3.55;;;3.22;;
19645;SDS011;9971;52.446;13.452;2023-10-09T09:56:06;4.25;;;3.30;;
19645;SDS011;9971;52.446;13.452;2023-10-09T10:01:09;4.30;;;3.90;;
19645;SDS011;9971;52.446;13.452;2023-10-09T10:06:19;4.12;;;3.72;;
19645;SDS011;9971;52.446;13.452;2023-10-09T10:16:37;4.77;;;4.33;;
19645;SDS011;9971;52.446;13.452;2023-10-09T10:21:53;6.28;;;4.03;;
19645;SDS011;9971;52.446;13.452;2023-10-09T10:32:12;4.90;;;4.37;;
19645;SDS011;9971;52.446;13.452;2023-10-09T10:37:17;5.05;;;4.62;;
19645;SDS011;9971;52.446;13.452;2023-10-09T10:42:20;4.42;;;4.08;;
19645;SDS011;9971;52.446;13.452;2023-10-09T10:47:28;5.00;;;4.37;;
19645;SDS011;9971;52.446;13.452;2023-10-09T10:52:34;5.13;;;4.73;;
19645;SDS011;9971;52.446;13.452;2023-10-09T10:57:36;4.67;;;4.27;;
19645;SDS011;9971;52.446;13.452;2023-10-09T11:02:43;4.58;;;4.17;;
19645;SDS011;9971;52.446;13.452;2023-10-09T11:07:41;5.58;;;3.92;;
19645;SDS011;9971;52.446;13.452;2023-10-09T11:12:45;6.03;;;4.63;;
19645;SDS011;9971;52.446;13.452;2023-10-09T11:18:02;4.90;;;4.17;;
19645;SDS011;9971;52.446;13.452;2023-10-09T11:23:06;5.27;;;4.87;;
19645;SDS011;9971;52.446;13.452;2023-10-09T11:28:18;5.60;;;4.83;;
19645;SDS011;9971;52.446;13.452;2023-10-09T11:33:27;5.17;;;4.70;;
19645;SDS011;9971;52.446;13.452;2023-10-09T11:38:35;5.23;;;4.83;;
19645;SDS011;9971;52.446;13.452;2023-10-09T11:43:44;5.33;;;4.78;;
19645;SDS011;9971;52.446;13.452;2023-10-09T11:48:40;6.35;;;5.72;;
19645;SDS011;9971;52.446;13.452;2023-10-09T11:53:47;4.97;;;4.47;;
19645;SDS011;9971;52.446;13.452;2023-10-09T11:58:50;5.25;;;4.20;;
19645;SDS011;9971;52.446;13.452;2023-10-09T12:03:53;4.37;;;3.98;;
19645;SDS011;9971;52.446;13.452;2023-10-09T12:08:57;5.05;;;4.65;;
19645;SDS011;9971;52.446;13.452;2023-10-09T12:13:59;4.63;;;4.23;;
19645;SDS011;9971;52.446;13.452;2023-10-09T12:19:02;5.05;;;4.65;;
19645;SDS011;9971;52.446;13.452;2023-10-09T12:24:04;5.50;;;5.10;;
19645;SDS011;9971;52.446;13.452;2023-10-09T12:29:07;6.60;;;6.00;;
19645;SDS011;9971;52.446;13.452;2023-10-09T12:34:09;6.33;;;5.75;;
19645;SDS011;9971;52.446;13.452;2023-10-09T12:39:11;6.62;;;6.03;;
19645;SDS011;9971;52.446;13.452;2023-10-09T12:44:14;6.58;;;5.95;;
19645;SDS011;9971;52.446;13.452;2023-10-09T12:49:19;6.37;;;5.77;;
19645;SDS011;9971;52.446;13.452;2023-10-09T12:54:20;7.57;;;6.87;;
19645;SDS011;9971;52.446;13.452;2023-10-09T12:59:25;8.83;;;6.07;;
19645;SDS011;9971;52.446;13.452;2023-10-09T13:04:28;5.83;;;5.33;;
19645;SDS011;9971;52.446;13.452;2023-10-09T13:09:30;5.87;;;5.30;;
19645;SDS011;9971;52.446;13.452;2023-10-09T13:14:35;5.62;;;5.10;;
19645;SDS011;9971;52.446;13.452;2023-10-09T13:19:38;5.58;;;5.08;;
19645;SDS011;9971;52.446;13.452;2023-10-09T13:24:40;5.42;;;4.92;;
19645;SDS011;9971;52.446;13.452;2023-10-09T13:29:43;5.13;;;4.60;;
19645;SDS011;9971;52.446;13.452;2023-10-09T13:34:45;5.00;;;4.60;;
19645;SDS011;9971;52.446;13.452;2023-10-09T13:39:48;5.90;;;5.30;;
19645;SDS011;9971;52.446;13.452;2023-10-09T13:44:53;5.20;;;4.78;;
19645;SDS011;9971;52.446;13.452;2023-10-09T13:49:56;5.08;;;4.67;;
19645;SDS011;9971;52.446;13.452;2023-10-09T13:54:58;4.57;;;4.27;;
19645;SDS011;9971;52.446;13.452;2023-10-09T14:00:01;6.40;;;5.50;;
19645;SDS011;9971;52.446;13.452;2023-10-09T14:05:03;5.83;;;5.25;;
19645;SDS011;9971;52.446;13.452;2023-10-09T14:10:06;6.25;;;5.60;;
19645;SDS011;9971;52.446;13.452;2023-10-09T14:15:09;5.47;;;5.08;;
19645;SDS011;9971;52.446;13.452;2023-10-09T14:20:12;5.92;;;5.35;;
19645;SDS011;9971;52.446;13.452;2023-10-09T14:25:19;6.27;;;5.77;;
19645;SDS011;9971;52.446;13.452;2023-10-09T14:30:21;5.93;;;5.40;;
19645;SDS011;9971;52.446;13.452;2023-10-09T14:35:25;5.40;;;4.90;;
19645;SDS011;9971;52.446;13.452;2023-10-09T14:40:27;6.00;;;5.50;;
19645;SDS011;9971;52.446;13.452;2023-10-09T14:45:30;5.70;;;5.20;;
19645;SDS011;9971;52.446;13.452;2023-10-09T14:50:33;5.85;;;5.28;;
19645;SDS011;9971;52.446;13.452;2023-10-09T14:55:35;5.60;;;5.13;;
19645;SDS011;9971;52.446;13.452;2023-10-09T15:00:37;6.87;;;5.65;;
19645;SDS011;9971;52.446;13.452;2023-10-09T15:05:41;6.10;;;5.50;;
19645;SDS011;9971;52.446;13.452;2023-10-09T15:10:45;5.90;;;5.40;;
19645;SDS011;9971;52.446;13.452;2023-10-09T15:15:49;5.58;;;5.17;;
19645;SDS011;9971;52.446;13.452;2023-10-09T15:20:51;5.35;;;4.87;;
19645;SDS011;9971;52.446;13.452;2023-10-09T15:25:54;6.55;;;4.40;;
19645;SDS011;9971;52.446;13.452;2023-10-09T15:30:56;5.53;;;5.03;;
19645;SDS011;9971;52.446;13.452;2023-10-09T15:35:58;5.25;;;4.75;;
19645;SDS011;9971;52.446;13.452;2023-10-09T15:41:03;5.63;;;5.07;;
19645;SDS011;9971;52.446;13.452;2023-10-09T15:46:10;5.20;;;4.73;;
19645;SDS011;9971;52.446;13.452;2023-10-09T15:51:12;5.33;;;4.85;;
19645;SDS011;9971;52.446;13.452;2023-10-09T15:56:15;5.42;;;5.03;;
19645;SDS011;9971;52.446;13.452;2023-10-09T16:01:20;5.27;;;4.87;;
19645;SDS011;9971;52.446;13.452;2023-10-09T16:06:26;6.92;;;6.05;;
19645;SDS011;9971;52.446;13.452;2023-10-09T16:11:28;7.97;;;7.37;;
19645;SDS011;9971;52.446;13.452;2023-10-09T16:16:31;6.35;;;5.58;;
19645;SDS011;9971;52.446;13.452;2023-10-09T16:42:59;6.67;;;6.17;;
19645;SDS011;9971;52.446;13.452;2023-10-09T16:48:06;6.85;;;6.17;;
19645;SDS011;9971;52.446;13.452;2023-10-09T16:53:09;6.67;;;6.13;;
19645;SDS011;9971;52.446;13.452;2023-10-09T16:58:16;6.77;;;6.17;;
19645;SDS011;9971;52.446;13.452;2023-10-09T17:03:21;11.70;;;10.90;;
19645;SDS011;9971;52.446;13.452;2023-10-09T17:08:23;8.40;;;7.80;;
19645;SDS011;9971;52.446;13.452;2023-10-09T17:13:25;8.77;;;8.07;;
19645;SDS011;9971;52.446;13.452;2023-10-09T17:18:28;6.85;;;6.35;;
19645;SDS011;9971;52.446;13.452;2023-10-09T17:23:31;7.15;;;6.45;;
19645;SDS011;9971;52.446;13.452;2023-10-09T17:28:34;6.97;;;6.33;;
19645;SDS011;9971;52.446;13.452;2023-10-09T17:33:36;8.00;;;7.12;;
19645;SDS011;9971;52.446;13.452;2023-10-09T17:38:39;5.62;;;5.17;;
19645;SDS011;9971;52.446;13.452;2023-10-09T17:43:56;6.73;;;5.87;;
19645;SDS011;9971;52.446;13.452;2023-10-09T17:49:02;6.57;;;5.87;;
19645;SDS011;9971;52.446;13.452;2023-10-09T17:54:05;7.20;;;6.60;;
19645;SDS011;9971;52.446;13.452;2023-10-09T17:59:07;6.85;;;6.17;;
19645;SDS011;9971;52.446;13.452;2023-10-09T18:04:09;7.30;;;6.65;;
19645;SDS011;9971;52.446;13.452;2023-10-09T18:09:12;7.28;;;6.58;;
19645;SDS011;9971;52.446;13.452;2023-10-09T18:14:17;7.30;;;6.63;;
19645;SDS011;9971;52.446;13.452;2023-10-09T18:19:19;7.03;;;6.42;;
19645;SDS011;9971;52.446;13.452;2023-10-09T18:24:21;7.10;;;6.50;;
19645;SDS011;9971;52.446;13.452;2023-10-09T18:29:32;7.47;;;6.72;;
19645;SDS011;9971;52.446;13.452;2023-10-09T18:34:34;6.57;;;6.07;;
19645;SDS011;9971;52.446;13.452;2023-10-09T18:39:37;8.63;;;7.27;;
19645;SDS011;9971;52.446;13.452;2023-10-09T18:44:39;6.40;;;5.90;;
19645;SDS011;9971;52.446;13.452;2023-10-09T18:49:43;7.85;;;7.15;;
19645;SDS011;9971;52.446;13.452;2023-10-09T18:54:48;6.60;;;6.10;;
19645;SDS011;9971;52.446;13.452;2023-10-09T18:59:51;6.80;;;6.10;;
19645;SDS011;9971;52.446;13.452;2023-10-09T19:04:54;6.83;;;6.23;;
19645;SDS011;9971;52.446;13.452;2023-10-09T19:09:56;6.63;;;6.03;;
19645;SDS011;9971;52.446;13.452;2023-10-09T19:14:59;7.12;;;6.50;;
19645;SDS011;9971;52.446;13.452;2023-10-09T19:20:02;7.12;;;6.47;;
19645;SDS011;9971;52.446;13.452;2023-10-09T19:25:06;6.47;;;5.87;;
19645;SDS011;9971;52.446;13.452;2023-10-09T19:30:11;6.60;;;6.00;;
19645;SDS011;9971;52.446;13.452;2023-10-09T19:35:21;7.70;;;7.00;;
19645;SDS011;9971;52.446;13.452;2023-10-09T19:40:24;7.77;;;6.60;;
19645;SDS011;9971;52.446;13.452;2023-10-09T19:45:26;7.30;;;6.70;;
19645;SDS011;9971;52.446;13.452;2023-10-09T19:50:29;7.37;;;6.67;;
19645;SDS011;9971;52.446;13.452;2023-10-09T19:55:33;7.07;;;6.40;;
19645;SDS011;9971;52.446;13.452;2023-10-09T20:00:39;6.70;;;6.10;;
19645;SDS011;9971;52.446;13.452;2023-10-09T20:05:45;7.43;;;6.73;;
19645;SDS011;9971;52.446;13.452;2023-10-09T20:10:47;8.23;;;7.42;;
19645;SDS011;9971;52.446;13.452;2023-10-09T20:15:55;8.67;;;7.77;;
19645;SDS011;9971;52.446;13.452;2023-10-09T20:20:59;8.33;;;7.62;;
19645;SDS011;9971;52.446;13.452;2023-10-09T20:26:01;8.75;;;7.83;;
19645;SDS011;9971;52.446;13.452;2023-10-09T20:31:03;8.38;;;7.58;;
19645;SDS011;9971;52.446;13.452;2023-10-09T20:36:07;8.70;;;7.90;;
19645;SDS011;9971;52.446;13.452;2023-10-09T20:41:10;10.30;;;9.30;;
19645;SDS011;9971;52.446;13.452;2023-10-09T20:46:14;8.85;;;7.90;;
19645;SDS011;9971;52.446;13.452;2023-10-09T20:51:16;11.17;;;8.97;;
19645;SDS011;9971;52.446;13.452;2023-10-09T20:56:25;10.63;;;9.57;;
19645;SDS011;9971;52.446;13.452;2023-10-09T21:01:28;10.27;;;9.27;;
19645;SDS011;9971;52.446;13.452;2023-10-09T21:06:31;11.28;;;10.10;;
19645;SDS011;9971;52.446;13.452;2023-10-09T21:11:36;10.30;;;9.37;;
19645;SDS011;9971;52.446;13.452;2023-10-09T21:16:44;10.68;;;9.58;;
19645;SDS011;9971;52.446;13.452;2023-10-09T21:21:46;10.20;;;9.30;;
19645;SDS011;9971;52.446;13.452;2023-10-09T21:26:52;11.00;;;9.93;;
19645;SDS011;9971;52.446;13.452;2023-10-09T21:31:58;11.22;;;10.23;;
19645;SDS011;9971;52.446;13.452;2023-10-09T21:37:00;11.27;;;10.13;;
19645;SDS011;9971;52.446;13.452;2023-10-09T21:42:05;10.80;;;9.73;;
19645;SDS011;9971;52.446;13.452;2023-10-09T21:47:07;10.63;;;9.63;;
19645;SDS011;9971;52.446;13.452;2023-10-09T21:57:33;10.50;;;9.60;;
19645;SDS011;9971;52.446;13.452;2023-10-09T22:02:41;9.85;;;8.85;;
19645;SDS011;9971;52.446;13.452;2023-10-09T22:07:50;10.53;;;9.43;;
19645;SDS011;9971;52.446;13.452;2023-10-09T22:12:55;10.37;;;9.37;;
19645;SDS011;9971;52.446;13.452;2023-10-09T22:17:59;9.37;;;8.57;;
19645;SDS011;9971;52.446;13.452;2023-10-09T22:23:05;9.83;;;8.80;;
19645;SDS011;9971;52.446;13.452;2023-10-09T22:28:10;9.57;;;8.63;;
19645;SDS011;9971;52.446;13.452;2023-10-09T22:33:16;9.30;;;8.40;;
19645;SDS011;9971;52.446;13.452;2023-10-09T22:38:24;9.00;;;8.20;;
19645;SDS011;9971;52.446;13.452;2023-10-09T22:43:27;8.65;;;7.87;;
19645;SDS011;9971;52.446;13.452;2023-10-09T22:48:37;9.13;;;8.10;;
19645;SDS011;9971;52.446;13.452;2023-10-09T22:53:44;10.13;;;8.33;;
19645;SDS011;9971;52.446;13.452;2023-10-09T22:58:50;7.87;;;7.17;;
19645;SDS011;9971;52.446;13.452;2023-10-09T23:03:53;7.92;;;7.12;;
19645;SDS011;9971;52.446;13.452;2023-10-09T23:09:14;7.23;;;6.57;;
19645;SDS011;9971;52.446;13.452;2023-10-09T23:14:28;7.53;;;6.83;;
19645;SDS011;9971;52.446;13.452;2023-10-09T23:19:33;8.93;;;7.45;;
19645;SDS011;9971;52.446;13.452;2023-10-09T23:24:43;8.47;;;7.67;;
19645;SDS011;9971;52.446;13.452;2023-10-09T23:30:06;9.40;;;7.57;;
19645;SDS011;9971;52.446;13.452;2023-10-09T23:35:27;8.05;;;7.17;;
19645;SDS011;9971;52.446;13.452;2023-10-09T23:40:49;7.83;;;7.00;;
19645;SDS011;9971;52.446;13.452;2023-10-09T23:45:53;8.53;;;7.63;;
19645;SDS011;9971;52.446;13.452;2023-10-09T23:51:00;7.37;;;6.67;;
19645;SDS011;9971;52.446;13.452;2023-10-09T23:56:03;8.37;;;7.67;;
